createdAt,value
2018-08-18T00:00:27.358Z,15.90
2018-08-18T00:02:56.793Z,15.80
2018-08-18T00:05:25.967Z,15.80
2018-08-18T00:07:54.884Z,15.80
2018-08-18T00:10:29.878Z,15.70
2018-08-18T00:12:58.853Z,15.70
2018-08-18T00:15:28.012Z,15.60
2018-08-18T00:17:57.097Z,15.60
2018-08-18T00:20:26.469Z,15.60
2018-08-18T00:22:55.686Z,15.50
2018-08-18T00:25:24.901Z,15.50
2018-08-18T00:27:55.076Z,15.40
2018-08-18T00:30:26.956Z,15.40
2018-08-18T00:32:57.143Z,15.40
2018-08-18T00:35:26.183Z,15.30
2018-08-18T00:37:55.347Z,15.30
2018-08-18T00:40:24.464Z,15.20
2018-08-18T00:42:53.699Z,15.20
2018-08-18T00:45:22.874Z,15.20
2018-08-18T00:47:52.271Z,15.20
2018-08-18T00:50:34.093Z,15.20
2018-08-18T00:53:03.644Z,15.20
2018-08-18T00:55:32.725Z,15.20
2018-08-18T00:58:01.771Z,15.20
2018-08-18T01:00:30.854Z,15.10
2018-08-18T01:03:00.448Z,15.10
2018-08-18T01:05:29.669Z,15.00
2018-08-18T01:07:59.079Z,15.00
2018-08-18T01:10:29.295Z,15.00
2018-08-18T01:12:58.510Z,14.90
2018-08-18T01:15:28.348Z,14.90
2018-08-18T01:17:57.545Z,14.80
2018-08-18T01:20:26.490Z,14.70
2018-08-18T01:23:00.061Z,14.70
2018-08-18T01:25:29.393Z,14.70
2018-08-18T01:27:59.005Z,14.70
2018-08-18T01:30:31.915Z,14.60
2018-08-18T01:33:00.960Z,14.60
2018-08-18T01:35:30.182Z,14.50
2018-08-18T01:37:59.360Z,14.50
2018-08-18T01:40:28.359Z,14.50
2018-08-18T01:42:57.972Z,14.40
2018-08-18T01:45:27.129Z,14.40
2018-08-18T01:47:56.377Z,14.40
2018-08-18T01:50:25.666Z,14.30
2018-08-18T01:52:54.700Z,14.30
2018-08-18T01:55:24.472Z,14.30
2018-08-18T01:57:53.464Z,14.20
2018-08-18T02:00:27.656Z,14.20
2018-08-18T02:02:57.119Z,14.10
2018-08-18T02:05:27.572Z,14.10
2018-08-18T02:07:56.914Z,14.10
2018-08-18T02:10:26.207Z,14.00
2018-08-18T02:13:03.171Z,14.00
2018-08-18T02:15:33.005Z,14.00
2018-08-18T02:18:02.054Z,14.00
2018-08-18T02:20:31.298Z,13.90
2018-08-18T02:23:00.526Z,13.90
2018-08-18T02:25:29.577Z,13.90
2018-08-18T02:27:58.719Z,13.90
2018-08-18T02:30:27.829Z,13.80
2018-08-18T02:32:57.003Z,13.80
2018-08-18T02:35:26.330Z,13.80
2018-08-18T02:37:55.527Z,13.70
2018-08-18T02:40:25.864Z,13.70
2018-08-18T02:42:55.055Z,13.70
2018-08-18T02:45:24.149Z,13.70
2018-08-18T02:48:08.148Z,13.70
2018-08-18T02:50:37.753Z,13.60
2018-08-18T02:53:18.856Z,13.60
2018-08-18T02:55:48.285Z,13.60
2018-08-18T02:58:17.417Z,13.60
2018-08-18T03:00:47.156Z,13.60
2018-08-18T03:03:16.633Z,13.50
2018-08-18T03:05:45.661Z,13.50
2018-08-18T03:08:14.770Z,13.50
2018-08-18T03:10:43.941Z,13.50
2018-08-18T03:13:13.032Z,13.40
2018-08-18T03:15:57.503Z,13.40
2018-08-18T03:18:34.898Z,13.40
2018-08-18T03:21:04.079Z,13.40
2018-08-18T03:23:34.016Z,13.30
2018-08-18T03:26:03.183Z,13.30
2018-08-18T03:28:38.662Z,13.20
2018-08-18T03:31:07.854Z,13.20
2018-08-18T03:33:36.951Z,13.30
2018-08-18T03:36:24.152Z,13.30
2018-08-18T03:38:54.397Z,13.20
2018-08-18T03:41:24.190Z,13.20
2018-08-18T03:43:54.033Z,13.10
2018-08-18T03:46:23.016Z,13.10
2018-08-18T03:48:52.362Z,13.10
2018-08-18T03:51:24.117Z,13.00
2018-08-18T03:53:53.162Z,13.00
2018-08-18T03:56:22.797Z,13.00
2018-08-18T03:58:54.144Z,13.00
2018-08-18T04:01:58.130Z,12.90
2018-08-18T04:04:28.178Z,12.90
2018-08-18T04:06:58.178Z,12.90
2018-08-18T04:09:28.172Z,12.90
2018-08-18T04:11:58.601Z,12.90
2018-08-18T04:14:32.651Z,12.90
2018-08-18T04:17:03.883Z,12.90
2018-08-18T04:19:32.999Z,12.90
2018-08-18T04:22:02.662Z,12.80
2018-08-18T04:24:36.673Z,12.80
2018-08-18T04:27:05.707Z,12.80
2018-08-18T04:29:34.864Z,12.80
2018-08-18T04:32:03.977Z,12.80
2018-08-18T04:34:33.269Z,12.80
2018-08-18T04:37:02.583Z,12.80
2018-08-18T04:39:31.812Z,12.70
2018-08-18T04:42:00.846Z,12.70
2018-08-18T04:44:29.799Z,12.70
2018-08-18T04:46:58.906Z,12.70
2018-08-18T04:49:27.837Z,12.70
2018-08-18T04:51:57.400Z,12.80
2018-08-18T04:54:26.452Z,12.80
2018-08-18T04:56:55.514Z,12.80
2018-08-18T04:59:36.515Z,12.90
2018-08-18T05:02:05.764Z,13.00
2018-08-18T05:04:37.446Z,13.00
2018-08-18T05:07:06.585Z,13.10
2018-08-18T05:09:35.829Z,13.20
2018-08-18T05:12:04.983Z,13.30
2018-08-18T05:14:33.988Z,13.40
2018-08-18T05:17:02.965Z,13.50
2018-08-18T05:19:31.997Z,13.60
2018-08-18T05:22:01.154Z,13.70
2018-08-18T05:24:33.839Z,13.80
2018-08-18T05:27:21.124Z,13.90
2018-08-18T05:29:50.158Z,14.00
2018-08-18T05:32:19.278Z,14.10
2018-08-18T05:34:54.404Z,14.30
2018-08-18T05:37:23.494Z,14.50
2018-08-18T05:39:52.481Z,14.80
2018-08-18T05:42:21.789Z,14.90
2018-08-18T05:44:51.268Z,15.10
2018-08-18T05:47:21.183Z,15.50
2018-08-18T05:49:50.243Z,15.70
2018-08-18T05:52:20.810Z,16.00
2018-08-18T05:54:49.977Z,16.20
2018-08-18T05:57:22.996Z,16.40
2018-08-18T05:59:51.867Z,16.70
2018-08-18T06:02:20.880Z,16.80
2018-08-18T06:04:49.748Z,17.20
2018-08-18T06:07:18.665Z,17.60
2018-08-18T06:09:47.923Z,18.00
2018-08-18T06:12:20.047Z,18.10
2018-08-18T06:14:54.073Z,18.40
2018-08-18T06:17:28.271Z,18.60
2018-08-18T06:20:07.615Z,18.70
2018-08-18T06:22:37.127Z,19.00
2018-08-18T06:25:06.779Z,19.30
2018-08-18T06:27:35.931Z,19.60
2018-08-18T06:30:05.319Z,20.00
2018-08-18T06:32:34.321Z,20.30
2018-08-18T06:35:03.678Z,20.40
2018-08-18T06:37:32.552Z,20.60
2018-08-18T06:40:01.501Z,21.10
2018-08-18T06:42:37.788Z,21.00
2018-08-18T06:45:10.576Z,21.70
2018-08-18T06:47:39.885Z,21.60
2018-08-18T06:50:12.255Z,22.00
2018-08-18T06:52:41.256Z,22.50
2018-08-18T06:55:14.949Z,22.70
2018-08-18T06:57:49.166Z,22.90
2018-08-18T07:00:23.144Z,23.20
2018-08-18T07:02:52.002Z,23.40
2018-08-18T07:05:21.022Z,23.80
2018-08-18T07:07:50.567Z,23.60
2018-08-18T07:10:32.764Z,24.20
2018-08-18T07:13:05.579Z,24.50
2018-08-18T07:15:35.558Z,24.90
2018-08-18T07:18:04.872Z,24.80
2018-08-18T07:20:33.596Z,24.90
2018-08-18T07:23:02.281Z,24.70
2018-08-18T07:25:31.014Z,24.90
2018-08-18T07:28:12.129Z,24.40
2018-08-18T07:30:40.884Z,24.50
2018-08-18T07:33:09.512Z,25.10
2018-08-18T07:35:38.085Z,25.40
2018-08-18T07:38:06.913Z,25.60
2018-08-18T07:40:42.420Z,25.80
2018-08-18T07:43:12.848Z,26.30
2018-08-18T07:45:41.657Z,26.60
2018-08-18T07:48:11.040Z,27.10
2018-08-18T07:50:39.660Z,27.10
2018-08-18T07:53:10.706Z,27.00
2018-08-18T07:55:39.409Z,27.40
2018-08-18T07:58:10.489Z,26.80
2018-08-18T08:00:39.716Z,26.80
2018-08-18T08:03:10.649Z,26.20
2018-08-18T08:05:41.668Z,26.40
2018-08-18T08:08:10.917Z,27.00
2018-08-18T08:10:39.672Z,27.00
2018-08-18T08:13:09.582Z,27.40
2018-08-18T08:15:38.287Z,26.70
2018-08-18T08:18:07.029Z,26.00
2018-08-18T08:20:39.497Z,26.80
2018-08-18T08:23:08.751Z,26.60
2018-08-18T08:25:37.443Z,26.80
2018-08-18T08:28:06.250Z,27.20
2018-08-18T08:30:34.949Z,27.20
2018-08-18T08:33:03.738Z,27.40
2018-08-18T08:35:32.506Z,26.90
2018-08-18T08:38:01.625Z,26.10
2018-08-18T08:40:30.550Z,26.20
2018-08-18T08:42:59.177Z,26.40
2018-08-18T08:45:27.774Z,26.60
2018-08-18T08:47:56.913Z,25.90
2018-08-18T08:50:26.020Z,26.30
2018-08-18T08:52:56.589Z,27.00
2018-08-18T08:55:26.624Z,27.10
2018-08-18T08:57:55.429Z,26.60
2018-08-18T09:00:24.136Z,26.90
2018-08-18T09:02:52.837Z,25.80
2018-08-18T09:05:21.864Z,26.60
2018-08-18T09:07:50.546Z,27.10
2018-08-18T09:10:19.169Z,27.30
2018-08-18T09:12:47.973Z,27.20
2018-08-18T09:15:20.257Z,27.30
2018-08-18T09:17:48.977Z,27.70
2018-08-18T09:20:19.225Z,27.90
2018-08-18T09:22:53.725Z,27.80
2018-08-18T09:25:22.607Z,28.30
2018-08-18T09:27:55.517Z,27.60
2018-08-18T09:30:25.464Z,26.90
2018-08-18T09:32:54.459Z,27.30
2018-08-18T09:35:24.157Z,26.90
2018-08-18T09:37:58.655Z,27.00
2018-08-18T09:40:28.970Z,27.50
2018-08-18T09:42:57.919Z,28.00
2018-08-18T09:45:26.886Z,27.90
2018-08-18T09:47:56.038Z,26.60
2018-08-18T09:50:24.738Z,28.10
2018-08-18T09:52:53.463Z,28.50
2018-08-18T09:55:22.147Z,29.30
2018-08-18T09:57:50.896Z,29.40
2018-08-18T10:00:23.851Z,29.40
2018-08-18T10:02:52.577Z,29.10
2018-08-18T10:05:21.446Z,29.40
2018-08-18T10:07:50.164Z,29.20
2018-08-18T10:10:18.899Z,29.00
2018-08-18T10:12:47.961Z,29.90
2018-08-18T10:15:16.793Z,30.20
2018-08-18T10:17:46.667Z,30.10
2018-08-18T10:20:15.502Z,29.60
2018-08-18T10:22:44.283Z,29.80
2018-08-18T10:25:14.211Z,30.60
2018-08-18T10:27:43.230Z,30.70
2018-08-18T10:30:14.229Z,30.30
2018-08-18T10:32:49.467Z,30.90
2018-08-18T10:35:28.978Z,31.00
2018-08-18T10:37:58.130Z,30.70
2018-08-18T10:40:27.172Z,31.00
2018-08-18T10:42:56.370Z,30.90
2018-08-18T10:45:25.483Z,30.50
2018-08-18T10:47:54.359Z,30.70
2018-08-18T10:50:40.730Z,31.10
2018-08-18T10:53:11.053Z,31.00
2018-08-18T10:55:40.490Z,31.30
2018-08-18T10:58:10.390Z,31.70
2018-08-18T11:00:39.804Z,31.50
2018-08-18T11:03:09.529Z,32.10
2018-08-18T11:05:38.746Z,32.40
2018-08-18T11:08:11.726Z,32.40
2018-08-18T11:10:42.135Z,32.60
2018-08-18T11:13:11.275Z,32.10
2018-08-18T11:15:40.321Z,31.50
2018-08-18T11:18:11.035Z,31.90
2018-08-18T11:20:40.195Z,31.90
2018-08-18T11:23:15.053Z,32.40
2018-08-18T11:25:53.668Z,32.40
2018-08-18T11:28:23.272Z,32.20
2018-08-18T11:30:53.845Z,32.30
2018-08-18T11:33:36.784Z,31.80
2018-08-18T11:36:06.596Z,32.20
2018-08-18T11:38:35.592Z,32.50
2018-08-18T11:41:04.558Z,32.50
2018-08-18T11:43:45.905Z,32.70
2018-08-18T11:46:14.552Z,32.90
2018-08-18T11:48:43.185Z,33.00
2018-08-18T11:51:11.769Z,33.00
2018-08-18T11:53:51.612Z,33.20
2018-08-18T11:56:20.231Z,33.20
2018-08-18T11:58:59.676Z,33.00
2018-08-18T12:01:33.423Z,33.40
2018-08-18T12:04:02.287Z,33.40
2018-08-18T12:06:30.991Z,32.70
2018-08-18T12:08:59.891Z,32.60
2018-08-18T12:11:28.620Z,33.50
2018-08-18T12:13:57.265Z,33.30
2018-08-18T12:16:25.975Z,33.50
2018-08-18T12:18:54.806Z,32.60
2018-08-18T12:21:23.587Z,32.60
2018-08-18T12:23:52.337Z,33.20
2018-08-18T12:26:22.830Z,33.50
2018-08-18T12:28:53.242Z,32.40
2018-08-18T12:31:24.199Z,33.00
2018-08-18T12:33:52.996Z,33.00
2018-08-18T12:36:21.772Z,32.70
2018-08-18T12:38:53.126Z,33.00
2018-08-18T12:41:21.731Z,33.30
2018-08-18T12:43:52.435Z,33.60
2018-08-18T12:46:22.329Z,34.00
2018-08-18T12:48:52.345Z,34.20
2018-08-18T12:51:21.432Z,33.90
2018-08-18T12:53:52.283Z,34.40
2018-08-18T12:56:23.902Z,34.60
2018-08-18T12:58:52.579Z,34.50
2018-08-18T13:01:38.405Z,34.50
2018-08-18T13:04:09.479Z,34.10
2018-08-18T13:06:43.171Z,34.70
2018-08-18T13:09:13.513Z,34.60
2018-08-18T13:11:43.038Z,34.50
2018-08-18T13:14:11.726Z,35.20
2018-08-18T13:16:43.629Z,35.00
2018-08-18T13:19:14.277Z,35.30
2018-08-18T13:21:43.745Z,35.50
2018-08-18T13:24:12.473Z,35.60
2018-08-18T13:26:41.087Z,35.60
2018-08-18T13:29:09.733Z,35.70
2018-08-18T13:31:40.437Z,35.70
2018-08-18T13:34:11.955Z,35.30
2018-08-18T13:36:41.839Z,35.40
2018-08-18T13:39:12.882Z,35.10
2018-08-18T13:41:42.076Z,35.70
2018-08-18T13:44:10.797Z,36.30
2018-08-18T13:46:47.865Z,36.30
2018-08-18T13:49:19.877Z,36.20
2018-08-18T13:51:48.592Z,35.90
2018-08-18T13:54:17.239Z,36.10
2018-08-18T13:56:45.832Z,35.40
2018-08-18T13:59:14.820Z,35.80
2018-08-18T14:01:44.800Z,36.00
2018-08-18T14:04:19.908Z,35.90
2018-08-18T14:06:55.519Z,35.60
2018-08-18T14:09:24.159Z,36.40
2018-08-18T14:12:00.352Z,36.50
2018-08-18T14:14:29.096Z,36.60
2018-08-18T14:16:57.737Z,36.40
2018-08-18T14:19:26.438Z,35.70
2018-08-18T14:22:00.443Z,35.70
2018-08-18T14:24:36.697Z,36.20
2018-08-18T14:27:07.941Z,36.70
2018-08-18T14:29:36.561Z,37.20
2018-08-18T14:32:12.632Z,36.60
2018-08-18T14:34:41.453Z,36.90
2018-08-18T14:37:13.978Z,37.50
2018-08-18T14:39:44.289Z,36.80
2018-08-18T14:42:13.035Z,37.30
2018-08-18T14:44:41.954Z,36.60
2018-08-18T14:47:10.721Z,37.00
2018-08-18T14:49:41.662Z,37.10
2018-08-18T14:52:10.515Z,36.90
2018-08-18T14:54:45.619Z,36.90
2018-08-18T14:57:14.412Z,36.00
2018-08-18T14:59:43.286Z,35.60
2018-08-18T15:02:12.081Z,35.60
2018-08-18T15:04:40.999Z,34.70
2018-08-18T15:07:09.854Z,35.00
2018-08-18T15:09:42.793Z,34.70
2018-08-18T15:12:11.643Z,33.40
2018-08-18T15:14:40.666Z,33.60
2018-08-18T15:17:09.630Z,33.10
2018-08-18T15:19:43.113Z,33.30
2018-08-18T15:22:12.939Z,33.80
2018-08-18T15:24:41.669Z,34.00
2018-08-18T15:27:10.503Z,33.60
2018-08-18T15:29:43.357Z,33.20
2018-08-18T15:32:12.168Z,33.50
2018-08-18T15:34:41.040Z,33.60
2018-08-18T15:37:09.922Z,32.90
2018-08-18T15:39:51.269Z,33.20
2018-08-18T15:42:37.641Z,32.90
2018-08-18T15:45:07.659Z,32.80
2018-08-18T15:47:36.452Z,32.30
2018-08-18T15:50:05.394Z,32.30
2018-08-18T15:52:35.149Z,32.10
2018-08-18T15:55:05.412Z,32.10
2018-08-18T15:57:38.379Z,31.80
2018-08-18T16:00:20.084Z,31.90
2018-08-18T16:02:49.031Z,31.80
2018-08-18T16:05:23.051Z,31.40
2018-08-18T16:07:52.660Z,31.20
2018-08-18T16:10:21.856Z,30.90
2018-08-18T16:12:51.249Z,30.40
2018-08-18T16:15:21.901Z,30.50
2018-08-18T16:17:51.200Z,30.50
2018-08-18T16:20:26.118Z,30.40
2018-08-18T16:22:56.468Z,30.20
2018-08-18T16:25:33.535Z,30.70
2018-08-18T16:28:02.780Z,30.80
2018-08-18T16:30:31.688Z,30.60
2018-08-18T16:33:11.765Z,30.90
2018-08-18T16:35:41.946Z,31.20
2018-08-18T16:38:10.902Z,31.30
2018-08-18T16:40:39.820Z,31.10
2018-08-18T16:43:09.893Z,31.00
2018-08-18T16:45:38.563Z,31.50
2018-08-18T16:48:09.225Z,31.30
2018-08-18T16:50:39.092Z,31.80
2018-08-18T16:53:11.254Z,32.20
2018-08-18T16:55:41.467Z,32.00
2018-08-18T16:58:10.155Z,32.10
2018-08-18T17:00:58.070Z,31.40
2018-08-18T17:03:33.416Z,31.60
2018-08-18T17:06:05.003Z,31.70
2018-08-18T17:08:33.712Z,31.60
2018-08-18T17:11:06.193Z,31.60
2018-08-18T17:13:36.064Z,31.40
2018-08-18T17:16:08.747Z,31.30
2018-08-18T17:18:37.651Z,31.20
2018-08-18T17:21:09.045Z,30.60
2018-08-18T17:23:42.143Z,30.50
2018-08-18T17:26:15.259Z,30.40
2018-08-18T17:28:47.715Z,30.10
2018-08-18T17:31:26.745Z,29.90
2018-08-18T17:33:58.914Z,29.90
2018-08-18T17:36:32.718Z,29.80
2018-08-18T17:39:06.597Z,29.80
2018-08-18T17:41:38.669Z,29.70
2018-08-18T17:44:10.054Z,29.40
2018-08-18T17:46:46.401Z,29.10
2018-08-18T17:49:17.656Z,29.00
2018-08-18T17:51:59.992Z,29.00
2018-08-18T17:54:33.765Z,28.70
2018-08-18T17:57:05.320Z,28.70
2018-08-18T17:59:38.310Z,28.50
2018-08-18T18:02:14.295Z,28.50
2018-08-18T18:04:56.437Z,28.30
2018-08-18T18:07:29.424Z,28.20
2018-08-18T18:10:02.290Z,28.10
2018-08-18T18:12:35.064Z,27.90
2018-08-18T18:15:39.034Z,27.60
2018-08-18T18:18:24.104Z,27.30
2018-08-18T18:20:57.501Z,27.00
2018-08-18T18:23:32.229Z,26.70
2018-08-18T18:26:04.704Z,26.90
2018-08-18T18:28:43.937Z,26.90
2018-08-18T18:31:16.486Z,26.80
2018-08-18T18:33:53.460Z,26.50
2018-08-18T18:36:28.905Z,26.10
2018-08-18T18:39:00.392Z,26.10
2018-08-18T18:41:41.571Z,26.20
2018-08-18T18:44:13.223Z,26.10
2018-08-18T18:46:45.226Z,26.20
2018-08-18T18:49:26.680Z,26.00
2018-08-18T18:51:59.415Z,25.90
2018-08-18T18:54:33.151Z,26.00
2018-08-18T18:57:04.104Z,25.90
2018-08-18T18:59:34.536Z,25.70
2018-08-18T19:02:03.342Z,25.70
2018-08-18T19:04:32.118Z,25.60
2018-08-18T19:07:08.590Z,25.70
2018-08-18T19:09:42.542Z,25.70
2018-08-18T19:12:15.692Z,25.40
2018-08-18T19:14:46.857Z,25.30
2018-08-18T19:17:21.018Z,25.30
2018-08-18T19:19:59.977Z,25.10
2018-08-18T19:22:34.317Z,25.10
2018-08-18T19:25:07.149Z,25.10
2018-08-18T19:27:40.992Z,25.10
2018-08-18T19:30:15.183Z,25.00
2018-08-18T19:32:47.526Z,24.70
2018-08-18T19:35:27.841Z,24.60
2018-08-18T19:37:59.555Z,24.60
2018-08-18T19:40:33.749Z,24.70
2018-08-18T19:43:21.129Z,24.50
2018-08-18T19:45:54.705Z,24.50
2018-08-18T19:48:29.520Z,24.40
2018-08-18T19:51:06.715Z,24.30
2018-08-18T19:53:41.822Z,24.20
2018-08-18T19:56:14.637Z,24.20
2018-08-18T19:58:49.062Z,24.20
2018-08-18T20:01:19.511Z,24.10
2018-08-18T20:03:48.094Z,24.00
2018-08-18T20:06:23.981Z,24.00
2018-08-18T20:08:57.371Z,23.90
2018-08-18T20:11:30.916Z,23.90
2018-08-18T20:14:02.440Z,23.80
2018-08-18T20:16:33.805Z,23.70
2018-08-18T20:19:05.930Z,23.60
2018-08-18T20:21:39.437Z,23.50
2018-08-18T20:24:13.027Z,23.40
2018-08-18T20:26:45.720Z,23.30
2018-08-18T20:29:19.986Z,23.30
2018-08-18T20:32:05.852Z,23.20
2018-08-18T20:34:43.763Z,23.10
2018-08-18T20:37:14.480Z,23.00
2018-08-18T20:39:47.253Z,23.00
2018-08-18T20:42:23.630Z,22.80
2018-08-18T20:44:57.437Z,22.70
2018-08-18T20:47:33.899Z,22.70
2018-08-18T20:50:07.242Z,22.80
2018-08-18T20:52:41.322Z,22.70
2018-08-18T20:55:12.449Z,22.70
2018-08-18T20:57:45.578Z,22.70
2018-08-18T21:00:19.694Z,22.50
2018-08-18T21:02:51.650Z,22.50
2018-08-18T21:05:21.905Z,22.40
2018-08-18T21:07:56.629Z,22.40
2018-08-18T21:10:29.693Z,22.30
2018-08-18T21:13:03.203Z,22.20
2018-08-18T21:15:35.135Z,22.20
2018-08-18T21:18:21.364Z,22.10
2018-08-18T21:20:52.554Z,22.00
2018-08-18T21:23:28.410Z,22.00
2018-08-18T21:26:03.138Z,22.00
2018-08-18T21:28:35.731Z,21.80
2018-08-18T21:31:07.917Z,21.80
2018-08-18T21:33:41.366Z,21.80
2018-08-18T21:36:13.274Z,21.80
2018-08-18T21:38:48.431Z,21.70
2018-08-18T21:41:22.210Z,21.60
2018-08-18T21:43:52.454Z,21.60
2018-08-18T21:46:32.331Z,21.50
2018-08-18T21:49:02.494Z,21.50
2018-08-18T21:51:36.907Z,21.50
2018-08-18T21:54:08.826Z,21.40
2018-08-18T21:56:44.369Z,21.30
2018-08-18T21:59:18.139Z,21.20
2018-08-18T22:01:52.265Z,21.20
2018-08-18T22:04:24.214Z,21.10
2018-08-18T22:06:59.131Z,21.10
2018-08-18T22:09:32.367Z,21.00
2018-08-18T22:12:04.852Z,21.00
2018-08-18T22:14:33.525Z,21.00
2018-08-18T22:17:02.121Z,20.90
2018-08-18T22:19:30.746Z,20.90
2018-08-18T22:21:59.384Z,21.00
2018-08-18T22:24:28.020Z,20.90
2018-08-18T22:26:56.717Z,20.90
2018-08-18T22:29:26.520Z,20.80
2018-08-18T22:31:55.203Z,20.90
2018-08-18T22:34:23.857Z,20.80
2018-08-18T22:36:56.612Z,20.80
2018-08-18T22:39:25.255Z,20.80
2018-08-18T22:41:54.026Z,20.70
2018-08-18T22:44:22.912Z,20.70
2018-08-18T22:46:51.685Z,20.70
2018-08-18T22:49:20.474Z,20.60
2018-08-18T22:51:49.284Z,20.60
2018-08-18T22:54:18.131Z,20.60
2018-08-18T22:56:51.380Z,20.50
2018-08-18T22:59:20.377Z,20.40
2018-08-18T23:01:48.984Z,20.40
2018-08-18T23:04:33.911Z,20.40
2018-08-18T23:07:03.601Z,20.30
2018-08-18T23:09:32.737Z,20.30
2018-08-18T23:12:03.105Z,20.20
2018-08-18T23:14:35.574Z,20.10
2018-08-18T23:17:04.477Z,20.10
2018-08-18T23:19:33.720Z,20.10
2018-08-18T23:22:02.618Z,20.00
2018-08-18T23:24:37.735Z,19.90
2018-08-18T23:27:06.503Z,19.90
2018-08-18T23:29:35.117Z,19.80
2018-08-18T23:32:16.441Z,19.80
2018-08-18T23:34:45.170Z,19.80
2018-08-18T23:37:19.627Z,19.70
2018-08-18T23:39:53.064Z,19.70
2018-08-18T23:42:23.165Z,19.60
2018-08-18T23:44:51.862Z,19.60
2018-08-18T23:47:20.815Z,19.50
2018-08-18T23:49:49.600Z,19.50
2018-08-18T23:52:18.687Z,19.50
2018-08-18T23:54:47.270Z,19.40
2018-08-18T23:57:17.087Z,19.40
2018-08-18T23:59:45.906Z,19.30
